createdAt,value
2018-12-22T00:01:53.343Z,56.65
2018-12-22T00:04:20.875Z,47.73
2018-12-22T00:06:48.334Z,48.30
2018-12-22T00:09:15.777Z,48.83
2018-12-22T00:11:43.208Z,46.65
2018-12-22T00:14:10.613Z,43.40
2018-12-22T00:16:38.025Z,40.57
2018-12-22T00:19:05.501Z,42.38
2018-12-22T00:21:32.944Z,49.30
2018-12-22T00:24:00.376Z,56.75
2018-12-22T00:26:27.869Z,45.50
2018-12-22T00:31:35.395Z,41.13
2018-12-22T00:34:02.850Z,45.67
2018-12-22T00:36:30.312Z,46.42
2018-12-22T00:38:57.729Z,48.38
2018-12-22T00:41:25.208Z,50.03
2018-12-22T00:43:52.623Z,45.20
2018-12-22T00:46:20.153Z,42.08
2018-12-22T00:48:47.586Z,40.25
2018-12-22T00:51:15.051Z,48.27
2018-12-22T00:53:42.509Z,50.23
2018-12-22T00:56:09.961Z,38.60
2018-12-22T00:58:37.396Z,53.00
2018-12-22T01:01:04.868Z,47.27
2018-12-22T01:03:32.437Z,44.15
2018-12-22T01:05:59.866Z,52.83
2018-12-22T01:08:27.284Z,44.40
2018-12-22T01:10:54.693Z,42.40
2018-12-22T01:13:22.132Z,43.90
2018-12-22T01:15:49.546Z,45.65
2018-12-22T01:18:16.965Z,46.25
2018-12-22T01:20:44.421Z,42.40
2018-12-22T01:23:11.877Z,41.50
2018-12-22T01:25:39.400Z,46.90
2018-12-22T01:28:06.888Z,44.27
2018-12-22T01:30:34.353Z,42.03
2018-12-22T01:33:01.825Z,38.40
2018-12-22T01:35:29.291Z,48.25
2018-12-22T01:37:56.734Z,42.70
2018-12-22T01:40:24.196Z,38.97
2018-12-22T01:42:51.630Z,35.25
2018-12-22T01:45:19.115Z,42.80
2018-12-22T01:47:46.580Z,50.28
2018-12-22T01:50:13.999Z,38.40
2018-12-22T01:52:41.443Z,51.63
2018-12-22T01:55:08.956Z,43.78
2018-12-22T01:57:36.385Z,36.05
2018-12-22T02:00:04.975Z,43.23
2018-12-22T02:02:32.451Z,46.02
2018-12-22T02:04:59.869Z,46.77
2018-12-22T02:07:27.341Z,40.67
2018-12-22T02:09:54.765Z,36.45
2018-12-22T02:12:22.231Z,42.20
2018-12-22T02:14:49.742Z,47.17
2018-12-22T02:17:17.195Z,47.83
2018-12-22T02:19:44.622Z,65.65
2018-12-22T02:22:12.099Z,46.35
2018-12-22T02:24:39.561Z,52.78
2018-12-22T02:27:07.004Z,48.27
2018-12-22T02:29:34.556Z,42.15
2018-12-22T02:32:01.986Z,40.95
2018-12-22T02:34:29.416Z,40.17
2018-12-22T02:36:56.931Z,48.80
2018-12-22T02:39:24.403Z,49.67
2018-12-22T02:41:51.839Z,44.27
2018-12-22T02:44:19.267Z,49.50
2018-12-22T02:46:46.757Z,40.37
2018-12-22T02:49:14.231Z,41.88
2018-12-22T02:51:41.641Z,38.98
2018-12-22T02:54:09.063Z,41.48
2018-12-22T02:56:36.485Z,42.53
2018-12-22T02:59:06.346Z,37.23
2018-12-22T03:01:33.560Z,39.90
2018-12-22T03:04:00.992Z,32.13
2018-12-22T03:06:28.451Z,45.60
2018-12-22T03:08:56.037Z,36.77
2018-12-22T03:11:23.486Z,52.43
2018-12-22T03:13:50.930Z,34.38
2018-12-22T03:16:18.355Z,40.08
2018-12-22T03:18:45.795Z,39.70
2018-12-22T03:21:13.261Z,47.10
2018-12-22T03:23:40.769Z,43.13
2018-12-22T03:26:08.215Z,34.35
2018-12-22T03:28:35.677Z,44.85
2018-12-22T03:31:03.103Z,31.75
2018-12-22T03:33:30.505Z,39.07
2018-12-22T03:35:58.056Z,34.23
2018-12-22T03:38:25.476Z,37.25
2018-12-22T03:40:52.892Z,39.25
2018-12-22T03:43:20.293Z,24.23
2018-12-22T03:45:47.697Z,26.12
2018-12-22T03:48:15.140Z,23.87
2018-12-22T03:50:42.677Z,23.98
2018-12-22T03:53:10.133Z,20.37
2018-12-22T03:55:37.611Z,21.57
2018-12-22T03:58:05.071Z,18.67
2018-12-22T04:00:32.533Z,25.25
2018-12-22T04:02:59.961Z,22.22
2018-12-22T04:05:27.390Z,22.37
2018-12-22T04:07:54.887Z,19.40
2018-12-22T04:10:22.310Z,23.12
2018-12-22T04:12:49.789Z,20.30
2018-12-22T04:15:17.259Z,27.80
2018-12-22T04:17:44.718Z,22.77
2018-12-22T04:20:12.166Z,25.40
2018-12-22T04:22:39.568Z,19.83
2018-12-22T04:25:07.102Z,23.90
2018-12-22T04:27:34.524Z,28.85
2018-12-22T04:30:02.073Z,26.02
2018-12-22T04:32:29.562Z,29.35
2018-12-22T04:34:57.032Z,27.00
2018-12-22T04:37:24.513Z,31.70
2018-12-22T04:39:52.035Z,28.87
2018-12-22T04:42:19.479Z,26.80
2018-12-22T04:44:47.074Z,27.90
2018-12-22T04:47:14.508Z,28.27
2018-12-22T04:49:41.943Z,32.00
2018-12-22T04:52:09.509Z,38.65
2018-12-22T04:54:36.980Z,35.88
2018-12-22T04:57:04.440Z,29.18
2018-12-22T04:59:31.898Z,22.50
2018-12-22T05:01:59.341Z,19.67
2018-12-22T05:04:26.798Z,23.22
2018-12-22T05:06:54.267Z,20.30
2018-12-22T05:09:21.736Z,19.98
2018-12-22T05:11:49.140Z,23.57
2018-12-22T05:14:16.626Z,17.07
2018-12-22T05:16:44.078Z,22.07
2018-12-22T05:19:11.550Z,17.87
2018-12-22T05:21:38.994Z,19.45
2018-12-22T05:24:06.434Z,22.65
2018-12-22T05:26:33.841Z,19.40
2018-12-22T05:29:01.283Z,20.27
2018-12-22T05:31:28.735Z,24.00
2018-12-22T05:33:56.155Z,21.13
2018-12-22T05:36:23.593Z,24.92
2018-12-22T05:38:51.098Z,18.37
2018-12-22T05:41:19.802Z,17.98
2018-12-22T05:43:47.373Z,20.45
2018-12-22T05:46:14.794Z,25.20
2018-12-22T05:48:42.264Z,20.17
2018-12-22T05:51:09.705Z,15.70
2018-12-22T05:53:37.165Z,12.70
2018-12-22T05:56:04.573Z,16.50
2018-12-22T05:58:32.074Z,15.77
2018-12-22T06:00:59.566Z,19.62
2018-12-22T06:03:26.993Z,18.20
2018-12-22T06:05:54.441Z,17.60
2018-12-22T06:08:21.905Z,17.75
2018-12-22T06:10:49.330Z,18.80
2018-12-22T06:13:16.756Z,18.12
2018-12-22T06:15:44.177Z,14.40
2018-12-22T06:18:11.633Z,20.17
2018-12-22T06:20:39.075Z,18.20
2018-12-22T06:23:06.620Z,14.68
2018-12-22T06:25:34.114Z,13.15
2018-12-22T06:28:01.775Z,13.50
2018-12-22T06:30:29.220Z,14.20
2018-12-22T06:32:56.899Z,15.38
2018-12-22T06:35:24.362Z,15.60
2018-12-22T06:37:51.847Z,16.17
2018-12-22T06:40:19.382Z,16.30
2018-12-22T06:42:46.831Z,17.90
2018-12-22T06:45:14.255Z,12.63
2018-12-22T06:47:41.679Z,15.65
2018-12-22T06:50:09.190Z,22.10
2018-12-22T06:52:36.645Z,22.90
2018-12-22T06:55:04.136Z,21.77
2018-12-22T06:57:31.540Z,18.30
2018-12-22T06:59:59.028Z,13.63
2018-12-22T07:02:26.487Z,9.28
2018-12-22T07:04:54.025Z,11.55
2018-12-22T07:07:21.603Z,7.30
2018-12-22T07:09:49.067Z,7.70
2018-12-22T07:12:16.531Z,10.53
2018-12-22T07:14:43.969Z,14.73
2018-12-22T07:17:11.422Z,11.00
2018-12-22T07:19:38.899Z,12.00
2018-12-22T07:22:06.351Z,14.03
2018-12-22T07:24:33.808Z,11.20
2018-12-22T07:27:01.253Z,12.18
2018-12-22T07:29:28.818Z,11.88
2018-12-22T07:31:56.280Z,10.38
2018-12-22T07:34:23.707Z,12.30
2018-12-22T07:36:51.204Z,28.02
2018-12-22T07:39:18.751Z,15.68
2018-12-22T07:41:46.175Z,16.10
2018-12-22T07:44:13.664Z,11.25
2018-12-22T07:46:41.112Z,14.38
2018-12-22T07:49:08.603Z,11.20
2018-12-22T07:51:36.057Z,15.98
2018-12-22T07:54:03.597Z,15.93
2018-12-22T07:56:31.032Z,15.18
2018-12-22T07:58:58.498Z,16.47
2018-12-22T08:01:25.983Z,16.48
2018-12-22T08:03:53.527Z,17.48
2018-12-22T08:06:20.983Z,79.67
2018-12-22T08:08:48.430Z,15.57
2018-12-22T08:11:15.912Z,12.10
2018-12-22T08:13:43.356Z,10.60
2018-12-22T08:16:10.785Z,10.13
2018-12-22T08:18:38.276Z,12.05
2018-12-22T08:21:05.737Z,9.55
2018-12-22T08:23:33.174Z,10.18
2018-12-22T08:26:00.644Z,7.40
2018-12-22T08:28:28.114Z,11.57
2018-12-22T08:30:55.537Z,9.43
2018-12-22T08:33:23.009Z,8.43
2018-12-22T08:35:50.468Z,11.70
2018-12-22T08:38:17.931Z,9.18
2018-12-22T08:40:45.367Z,12.60
2018-12-22T08:43:12.828Z,7.87
2018-12-22T08:45:40.254Z,7.15
2018-12-22T08:48:07.749Z,12.10
2018-12-22T08:50:35.208Z,14.63
2018-12-22T08:53:02.674Z,9.63
2018-12-22T08:55:30.130Z,14.38
2018-12-22T08:57:57.569Z,9.33
2018-12-22T09:00:25.045Z,8.00
2018-12-22T09:02:52.519Z,5.85
2018-12-22T09:05:19.948Z,9.50
2018-12-22T09:07:47.394Z,9.13
2018-12-22T09:10:14.824Z,10.80
2018-12-22T09:12:42.259Z,6.95
2018-12-22T09:15:09.772Z,11.43
2018-12-22T09:17:37.221Z,9.75
2018-12-22T09:20:07.337Z,7.87
2018-12-22T09:22:34.766Z,10.90
2018-12-22T09:25:02.286Z,102.02
2018-12-22T09:27:29.697Z,26.62
2018-12-22T09:29:57.183Z,10.63
2018-12-22T09:32:24.629Z,7.28
2018-12-22T09:34:52.067Z,10.85
2018-12-22T09:37:19.569Z,6.87
2018-12-22T09:39:47.011Z,9.97
2018-12-22T09:42:14.447Z,12.18
2018-12-22T09:44:41.928Z,7.95
2018-12-22T09:47:09.348Z,6.20
2018-12-22T09:49:36.825Z,6.97
2018-12-22T09:52:04.294Z,8.98
2018-12-22T09:54:31.738Z,18.42
2018-12-22T09:56:59.212Z,10.27
2018-12-22T09:59:26.677Z,11.93
2018-12-22T10:01:54.087Z,11.65
2018-12-22T10:04:21.569Z,12.30
2018-12-22T10:06:48.995Z,12.82
2018-12-22T10:09:16.504Z,18.40
2018-12-22T10:11:43.950Z,15.30
2018-12-22T10:14:11.397Z,15.70
2018-12-22T10:16:38.827Z,19.92
2018-12-22T10:19:06.322Z,10.45
2018-12-22T10:21:33.783Z,13.50
2018-12-22T10:24:01.243Z,12.00
2018-12-22T10:26:28.995Z,16.35
2018-12-22T10:28:56.445Z,11.50
2018-12-22T10:31:23.895Z,13.18
2018-12-22T10:33:51.365Z,14.87
2018-12-22T10:36:18.793Z,11.80
2018-12-22T10:38:46.274Z,12.60
2018-12-22T10:41:13.744Z,10.88
2018-12-22T10:43:41.180Z,12.18
2018-12-22T10:46:08.641Z,16.02
2018-12-22T10:48:36.075Z,20.30
2018-12-22T10:51:03.569Z,19.67
2018-12-22T10:53:31.029Z,19.82
2018-12-22T10:55:58.486Z,14.63
2018-12-22T10:58:25.946Z,20.95
2018-12-22T11:00:53.387Z,11.00
2018-12-22T11:03:20.865Z,13.53
2018-12-22T11:05:48.273Z,18.37
2018-12-22T11:08:15.783Z,13.25
2018-12-22T11:10:43.232Z,16.30
2018-12-22T11:13:10.663Z,14.03
2018-12-22T11:15:38.104Z,13.57
2018-12-22T11:18:05.521Z,10.48
2018-12-22T11:20:32.966Z,14.85
2018-12-22T11:23:00.410Z,13.43
2018-12-22T11:25:27.958Z,12.87
2018-12-22T11:27:55.435Z,11.05
2018-12-22T11:30:24.435Z,16.82
2018-12-22T11:32:51.884Z,12.78
2018-12-22T11:35:19.426Z,10.65
2018-12-22T11:37:47.007Z,14.65
2018-12-22T11:40:14.431Z,18.40
2018-12-22T11:42:47.581Z,14.20
2018-12-22T11:45:11.401Z,9.80
2018-12-22T11:47:41.737Z,9.08
2018-12-22T11:50:17.593Z,10.68
2018-12-22T11:52:45.042Z,9.10
2018-12-22T11:55:12.463Z,9.73
2018-12-22T11:57:40.054Z,10.68
2018-12-22T12:00:09.257Z,11.70
2018-12-22T12:02:36.732Z,49.80
2018-12-22T12:05:07.371Z,19.77
2018-12-22T12:07:35.774Z,21.05
2018-12-22T12:10:03.712Z,40.75
2018-12-22T12:12:31.140Z,19.42
2018-12-22T12:14:58.592Z,12.78
2018-12-22T12:17:38.537Z,15.17
2018-12-22T12:20:06.693Z,15.18
2018-12-22T12:22:34.285Z,11.45
2018-12-22T12:25:01.754Z,11.18
2018-12-22T12:27:29.232Z,11.93
2018-12-22T12:29:56.779Z,14.85
2018-12-22T12:32:24.196Z,11.57
2018-12-22T12:34:51.641Z,11.60
2018-12-22T12:37:19.080Z,14.00
2018-12-22T12:39:46.486Z,9.00
2018-12-22T12:42:13.913Z,9.43
2018-12-22T12:44:42.352Z,9.75
2018-12-22T12:47:10.018Z,8.85
2018-12-22T12:49:37.433Z,7.90
2018-12-22T12:52:05.024Z,12.95
2018-12-22T12:54:32.483Z,12.00
2018-12-22T12:56:59.913Z,8.40
2018-12-22T12:59:27.379Z,8.18
2018-12-22T13:02:00.967Z,8.20
2018-12-22T13:04:24.308Z,9.08
2018-12-22T13:06:51.789Z,11.10
2018-12-22T13:09:19.232Z,13.25
2018-12-22T13:11:46.926Z,10.10
2018-12-22T13:14:14.496Z,5.60
2018-12-22T13:16:41.936Z,8.95
2018-12-22T13:19:09.375Z,8.57
2018-12-22T13:21:36.986Z,9.90
2018-12-22T13:24:04.510Z,8.68
2018-12-22T13:26:36.766Z,10.13
2018-12-22T13:29:01.487Z,17.87
2018-12-22T13:31:29.981Z,16.40
2018-12-22T13:33:57.551Z,16.90
2018-12-22T13:36:24.979Z,11.20
2018-12-22T13:38:52.626Z,10.53
2018-12-22T13:41:20.296Z,9.03
2018-12-22T13:43:47.777Z,8.53
2018-12-22T13:46:15.193Z,8.30
2018-12-22T13:48:42.864Z,7.73
2018-12-22T13:51:10.760Z,8.83
2018-12-22T13:53:38.428Z,9.23
2018-12-22T13:56:05.981Z,12.07
2018-12-22T13:58:33.519Z,9.23
2018-12-22T14:01:01.088Z,4.65
2018-12-22T14:03:28.628Z,7.05
2018-12-22T14:05:56.097Z,4.40
2018-12-22T14:08:23.701Z,4.53
2018-12-22T14:10:51.098Z,3.92
2018-12-22T14:13:18.531Z,2.40
2018-12-22T14:15:47.368Z,4.20
2018-12-22T14:18:19.419Z,3.65
2018-12-22T14:20:46.880Z,6.70
2018-12-22T14:23:14.337Z,9.40
2018-12-22T14:25:41.767Z,7.72
2018-12-22T14:28:09.193Z,11.55
2018-12-22T14:30:36.737Z,7.33
2018-12-22T14:33:04.374Z,9.67
2018-12-22T14:35:34.707Z,16.65
2018-12-22T14:38:02.123Z,17.85
2018-12-22T14:40:29.601Z,19.90
2018-12-22T14:42:57.026Z,21.68
2018-12-22T14:45:24.543Z,18.05
2018-12-22T14:47:52.075Z,23.10
2018-12-22T14:50:19.537Z,13.38
2018-12-22T14:52:47.054Z,11.88
2018-12-22T14:55:14.551Z,15.28
2018-12-22T14:57:53.396Z,12.33
2018-12-22T15:00:20.811Z,13.53
2018-12-22T15:02:48.292Z,17.30
2018-12-22T15:05:15.770Z,12.50
2018-12-22T15:07:43.197Z,10.23
2018-12-22T15:10:10.975Z,20.95
2018-12-22T15:12:38.442Z,15.98
2018-12-22T15:15:11.104Z,15.45
2018-12-22T15:17:41.468Z,15.72
2018-12-22T15:20:14.784Z,13.13
2018-12-22T15:22:42.370Z,11.55
2018-12-22T15:25:09.939Z,11.47
2018-12-22T15:27:37.416Z,11.80
2018-12-22T15:30:08.858Z,13.48
2018-12-22T15:32:43.889Z,11.60
2018-12-22T15:35:07.741Z,13.22
2018-12-22T15:37:35.325Z,16.62
2018-12-22T15:40:04.410Z,14.38
2018-12-22T15:42:31.867Z,8.15
2018-12-22T15:44:59.431Z,7.90
2018-12-22T15:47:26.896Z,12.15
2018-12-22T15:49:54.552Z,14.58
2018-12-22T15:52:22.003Z,17.13
2018-12-22T15:54:49.456Z,15.90
2018-12-22T15:57:17.028Z,17.95
2018-12-22T15:59:44.480Z,15.70
2018-12-22T16:02:11.906Z,12.25
2018-12-22T16:04:39.414Z,12.98
2018-12-22T16:07:06.848Z,14.23
2018-12-22T16:09:34.253Z,14.77
2018-12-22T16:12:01.760Z,35.50
2018-12-22T16:14:29.178Z,28.85
2018-12-22T16:16:56.666Z,32.63
2018-12-22T16:19:24.121Z,8.63
2018-12-22T16:21:51.540Z,10.10
2018-12-22T16:24:19.042Z,5.60
2018-12-22T16:26:46.722Z,7.37
2018-12-22T16:29:14.331Z,8.98
2018-12-22T16:31:41.820Z,7.67
2018-12-22T16:34:09.277Z,7.15
2018-12-22T16:36:36.709Z,8.40
2018-12-22T16:39:06.242Z,13.35
2018-12-22T16:41:33.698Z,11.97
2018-12-22T16:44:01.258Z,15.88
2018-12-22T16:46:28.733Z,11.78
2018-12-22T16:48:56.191Z,10.60
2018-12-22T16:51:23.606Z,17.52
2018-12-22T16:53:51.099Z,17.42
2018-12-22T16:56:18.576Z,14.70
2018-12-22T16:58:46.402Z,7.72
2018-12-22T17:01:18.469Z,8.50
2018-12-22T17:03:46.145Z,11.22
2018-12-22T17:06:14.319Z,8.68
2018-12-22T17:08:41.827Z,11.43
2018-12-22T17:11:09.326Z,10.03
2018-12-22T17:13:36.802Z,12.73
2018-12-22T17:16:04.445Z,12.53
2018-12-22T17:18:31.880Z,13.00
2018-12-22T17:21:03.227Z,12.58
2018-12-22T17:23:38.093Z,11.97
2018-12-22T17:26:06.359Z,10.90
2018-12-22T17:28:33.834Z,16.40
2018-12-22T17:31:01.249Z,10.90
2018-12-22T17:33:28.672Z,13.62
2018-12-22T17:35:56.304Z,14.93
2018-12-22T17:38:24.164Z,15.43
2018-12-22T17:40:51.721Z,21.30
2018-12-22T17:43:19.160Z,12.35
2018-12-22T17:45:46.626Z,15.68
2018-12-22T17:48:14.180Z,18.40
2018-12-22T17:50:41.640Z,18.37
2018-12-22T17:53:09.061Z,20.85
2018-12-22T17:55:36.542Z,23.77
2018-12-22T17:58:04.027Z,16.23
2018-12-22T18:00:31.496Z,13.08
2018-12-22T18:02:58.931Z,15.23
2018-12-22T18:05:26.433Z,13.83
2018-12-22T18:07:53.975Z,16.02
2018-12-22T18:10:21.377Z,15.25
2018-12-22T18:12:48.867Z,15.75
2018-12-22T18:15:22.896Z,21.10
2018-12-22T18:17:50.426Z,15.67
2018-12-22T18:20:17.907Z,12.40
2018-12-22T18:22:45.455Z,16.50
2018-12-22T18:25:17.417Z,13.83
2018-12-22T18:27:45.544Z,18.17
2018-12-22T18:30:13.353Z,25.45
2018-12-22T18:32:42.039Z,16.23
2018-12-22T18:35:11.443Z,10.87
2018-12-22T18:37:39.377Z,11.70
2018-12-22T18:40:23.055Z,10.80
2018-12-22T18:42:50.519Z,11.57
2018-12-22T18:45:17.938Z,9.15
2018-12-22T18:47:45.424Z,11.07
2018-12-22T18:50:22.181Z,11.05
2018-12-22T18:52:49.619Z,10.73
2018-12-22T18:55:17.042Z,20.65
2018-12-22T18:57:47.084Z,18.35
2018-12-22T19:00:22.676Z,19.12
2018-12-22T19:02:50.732Z,22.10
2018-12-22T19:05:18.937Z,24.85
2018-12-22T19:07:46.460Z,22.40
2018-12-22T19:10:22.848Z,26.23
2018-12-22T19:12:50.392Z,71.85
2018-12-22T19:15:17.901Z,43.17
2018-12-22T19:17:45.422Z,26.35
2018-12-22T19:20:20.537Z,23.90
2018-12-22T19:22:48.002Z,24.12
2018-12-22T19:25:15.443Z,31.90
2018-12-22T19:27:42.863Z,30.23
2018-12-22T19:30:10.278Z,29.20
2018-12-22T19:32:37.747Z,28.75
2018-12-22T19:35:06.133Z,23.12
2018-12-22T19:37:33.559Z,18.40
2018-12-22T19:40:01.039Z,19.82
2018-12-22T19:42:28.511Z,16.87
2018-12-22T19:44:55.930Z,7.90
2018-12-22T19:47:23.407Z,9.37
2018-12-22T19:49:50.865Z,7.75
2018-12-22T19:52:18.284Z,8.48
2018-12-22T19:54:45.762Z,8.90
2018-12-22T19:57:13.222Z,8.90
2018-12-22T19:59:40.684Z,8.50
2018-12-22T20:02:08.135Z,8.40
2018-12-22T20:04:35.576Z,7.90
2018-12-22T20:07:03.111Z,7.83
2018-12-22T20:09:30.636Z,12.37
2018-12-22T20:11:58.059Z,17.97
2018-12-22T20:14:25.533Z,21.87
2018-12-22T20:16:52.977Z,26.48
2018-12-22T20:19:20.452Z,31.37
2018-12-22T20:21:47.911Z,32.23
2018-12-22T20:24:15.353Z,30.12
2018-12-22T20:26:42.790Z,32.80
2018-12-22T20:29:10.265Z,36.50
2018-12-22T20:31:37.744Z,36.50
2018-12-22T20:34:11.004Z,41.28
2018-12-22T20:36:34.629Z,42.07
2018-12-22T20:39:02.143Z,44.60
2018-12-22T20:41:29.598Z,39.23
2018-12-22T20:43:57.017Z,43.00
2018-12-22T20:46:24.446Z,36.42
2018-12-22T20:48:51.974Z,32.88
2018-12-22T20:51:19.397Z,30.75
2018-12-22T20:53:46.809Z,33.17
2018-12-22T20:56:14.261Z,26.90
2018-12-22T20:58:41.720Z,30.50
2018-12-22T21:01:09.155Z,27.70
2018-12-22T21:03:39.730Z,33.83
2018-12-22T21:06:13.125Z,33.40
2018-12-22T21:08:40.547Z,25.43
2018-12-22T21:11:07.984Z,31.93
2018-12-22T21:13:35.408Z,29.32
2018-12-22T21:16:02.822Z,23.20
2018-12-22T21:18:30.279Z,26.20
2018-12-22T21:20:57.720Z,24.93
2018-12-22T21:23:25.195Z,28.02
2018-12-22T21:25:52.619Z,22.37
2018-12-22T21:28:20.108Z,23.30
2018-12-22T21:30:47.543Z,23.98
2018-12-22T21:33:15.013Z,24.23
2018-12-22T21:35:52.799Z,19.85
2018-12-22T21:38:11.890Z,20.55
2018-12-22T21:40:39.339Z,19.90
2018-12-22T21:43:06.795Z,24.82
2018-12-22T21:45:34.236Z,19.37
2018-12-22T21:48:01.651Z,21.07
2018-12-22T21:50:29.159Z,27.00
2018-12-22T21:52:56.619Z,23.12
2018-12-22T21:55:24.072Z,19.95
2018-12-22T21:57:51.508Z,18.65
2018-12-22T22:00:19.150Z,23.20
2018-12-22T22:02:46.647Z,21.37
2018-12-22T22:05:14.068Z,24.07
2018-12-22T22:07:41.566Z,27.37
2018-12-22T22:10:09.105Z,22.27
2018-12-22T22:12:36.580Z,27.58
2018-12-22T22:15:05.049Z,25.68
2018-12-22T22:17:32.519Z,19.98
2018-12-22T22:19:59.954Z,20.75
2018-12-22T22:22:27.377Z,17.12
2018-12-22T22:24:54.950Z,22.83
2018-12-22T22:27:22.359Z,20.32
2018-12-22T22:29:49.917Z,44.73
2018-12-22T22:32:17.349Z,12.28
2018-12-22T22:34:45.728Z,11.25
2018-12-22T22:37:13.548Z,19.37
2018-12-22T22:39:40.981Z,17.75
2018-12-22T22:42:08.389Z,14.43
2018-12-22T22:44:35.862Z,18.30
2018-12-22T22:47:03.293Z,13.40
2018-12-22T22:49:30.786Z,16.60
2018-12-22T22:51:58.242Z,16.05
2018-12-22T22:54:25.694Z,15.73
2018-12-22T22:56:53.150Z,11.18
2018-12-22T22:59:20.557Z,13.50
2018-12-22T23:01:48.057Z,15.48
2018-12-22T23:04:15.523Z,10.90
2018-12-22T23:06:42.989Z,14.00
2018-12-22T23:09:10.448Z,13.95
2018-12-22T23:11:37.849Z,10.03
2018-12-22T23:14:05.288Z,10.68
2018-12-22T23:16:32.777Z,13.25
2018-12-22T23:19:00.199Z,15.20
2018-12-22T23:21:27.631Z,15.40
2018-12-22T23:23:55.124Z,16.37
2018-12-22T23:26:22.647Z,16.65
2018-12-22T23:28:50.086Z,18.52
2018-12-22T23:31:17.531Z,27.77
2018-12-22T23:33:44.938Z,20.88
2018-12-22T23:36:12.480Z,23.07
2018-12-22T23:38:39.927Z,19.23
2018-12-22T23:41:07.492Z,21.65
2018-12-22T23:43:34.951Z,23.95
2018-12-22T23:46:02.427Z,24.85
2018-12-22T23:48:29.872Z,26.50
2018-12-22T23:50:58.152Z,33.90
2018-12-22T23:53:25.789Z,29.77
2018-12-22T23:55:53.228Z,28.30
2018-12-22T23:58:20.698Z,27.30
